Time;durP1;ratioP1;P1;durP2;ratioP2;P2;SDS_P1;SDS_P2;PMS_P1;PMS_P2;Temp;Humidity;BMP_temperature;BMP_pressure;BME280_temperature;BME280_humidity;BME280_pressure;Samples;Min_cycle;Max_cycle;Signal;HPM_P1;HPM_P2
2022/02/22 00:01:29;;;;;;;20.30;3.90;;;;;;;;;;5054096;28;20045;-83
2022/02/22 00:04:36;;;;;;;17.27;2.75;;;;;;;;;;5053935;28;20037;-82
2022/02/22 00:07:41;;;;;;;21.60;3.97;;;;;;;;;;5054933;28;20036;-81
2022/02/22 00:10:45;;;;;;;17.63;2.95;;;;;;;;;;5054100;28;20036;-82
2022/02/22 00:13:50;;;;;;;19.67;3.25;;;;;;;;;;5054501;28;20512;-80
2022/02/22 00:16:57;;;;;;;19.33;2.90;;;;;;;;;;5054035;28;20046;-81
2022/02/22 00:20:02;;;;;;;22.15;2.97;;;;;;;;;;5054496;28;20049;-81
2022/02/22 00:23:07;;;;;;;18.83;2.72;;;;;;;;;;5054520;28;20041;-81
2022/02/22 00:26:11;;;;;;;11.60;2.50;;;;;;;;;;5054234;28;20045;-81
2022/02/22 00:29:16;;;;;;;19.65;2.75;;;;;;;;;;5053876;28;20064;-81
2022/02/22 00:32:21;;;;;;;15.02;3.28;;;;;;;;;;5054198;28;20048;-81
2022/02/22 00:35:25;;;;;;;15.32;2.72;;;;;;;;;;5053012;28;20042;-81
2022/02/22 00:38:29;;;;;;;15.07;2.45;;;;;;;;;;5054200;28;20041;-81
2022/02/22 00:41:34;;;;;;;17.88;2.80;;;;;;;;;;5054131;28;20037;-81
2022/02/22 00:44:38;;;;;;;25.00;2.70;;;;;;;;;;5053222;28;20048;-81
2022/02/22 00:47:43;;;;;;;14.93;3.47;;;;;;;;;;5053906;28;20044;-81
2022/02/22 00:50:47;;;;;;;20.75;2.38;;;;;;;;;;5053585;28;20057;-81
2022/02/22 00:53:51;;;;;;;25.85;3.72;;;;;;;;;;5053902;28;20042;-82
2022/02/22 00:56:56;;;;;;;19.95;4.10;;;;;;;;;;5053390;28;20041;-81
2022/02/22 01:00:00;;;;;;;29.95;6.25;;;;;;;;;;5052957;28;20520;-81
2022/02/22 01:03:04;;;;;;;36.28;6.75;;;;;;;;;;5053534;28;20044;-82
2022/02/22 01:06:09;;;;;;;21.55;4.93;;;;;;;;;;5053660;28;20041;-82
2022/02/22 01:09:14;;;;;;;26.98;5.55;;;;;;;;;;5053064;28;20424;-82
2022/02/22 01:12:18;;;;;;;19.75;4.95;;;;;;;;;;5053457;28;20041;-82
2022/02/22 01:15:22;;;;;;;22.13;4.57;;;;;;;;;;5052597;28;20048;-82
2022/02/22 01:18:27;;;;;;;22.20;5.45;;;;;;;;;;5052493;28;20040;-83
2022/02/22 01:21:32;;;;;;;28.20;5.55;;;;;;;;;;5053056;28;20416;-82
2022/02/22 01:24:36;;;;;;;27.40;5.32;;;;;;;;;;5052876;28;20029;-82
2022/02/22 01:27:40;;;;;;;19.70;5.35;;;;;;;;;;5040821;28;20037;-82
2022/02/22 01:30:44;;;;;;;26.67;5.10;;;;;;;;;;5052078;28;20036;-82
2022/02/22 01:33:53;;;;;;;26.95;6.13;;;;;;;;;;5052879;28;20041;-81
2022/02/22 01:36:58;;;;;;;23.35;5.53;;;;;;;;;;5053105;28;20033;-82
2022/02/22 01:40:04;;;;;;;17.73;4.80;;;;;;;;;;5052710;28;20068;-82
2022/02/22 01:43:08;;;;;;;17.42;4.70;;;;;;;;;;5052130;28;20508;-82
2022/02/22 01:46:12;;;;;;;21.73;5.35;;;;;;;;;;5052655;28;20134;-82
2022/02/22 01:49:16;;;;;;;23.30;5.85;;;;;;;;;;5052588;28;20045;-82
2022/02/22 01:52:21;;;;;;;22.55;6.70;;;;;;;;;;5040533;28;20045;-82
2022/02/22 01:55:25;;;;;;;23.80;6.40;;;;;;;;;;5051475;28;20039;-82
2022/02/22 01:58:30;;;;;;;23.17;5.80;;;;;;;;;;5052545;28;20048;-82
2022/02/22 02:01:41;;;;;;;19.52;4.97;;;;;;;;;;5052375;28;20382;-82
2022/02/22 02:04:45;;;;;;;16.77;4.97;;;;;;;;;;5051552;28;20037;-81
2022/02/22 02:07:49;;;;;;;20.38;5.10;;;;;;;;;;5051396;28;20053;-82
2022/02/22 02:10:55;;;;;;;18.67;4.75;;;;;;;;;;5052093;28;20040;-82
2022/02/22 02:13:59;;;;;;;15.70;4.47;;;;;;;;;;5051278;28;20040;-82
2022/02/22 02:17:03;;;;;;;16.13;3.22;;;;;;;;;;5052114;28;20041;-81
2022/02/22 02:20:09;;;;;;;16.77;4.15;;;;;;;;;;5051141;28;20040;-81
2022/02/22 02:23:13;;;;;;;15.40;3.58;;;;;;;;;;5051844;28;20050;-81
2022/02/22 02:26:17;;;;;;;13.27;3.88;;;;;;;;;;5051102;28;20389;-82
2022/02/22 02:29:23;;;;;;;15.75;3.72;;;;;;;;;;5051697;28;20041;-81
2022/02/22 02:32:28;;;;;;;19.52;4.47;;;;;;;;;;5052092;28;20105;-83
2022/02/22 02:35:32;;;;;;;14.75;4.20;;;;;;;;;;5051916;28;20033;-82
2022/02/22 02:38:37;;;;;;;18.55;4.72;;;;;;;;;;5051617;28;20180;-80
2022/02/22 02:41:41;;;;;;;18.20;4.40;;;;;;;;;;5050910;28;20069;-82
2022/02/22 02:44:47;;;;;;;12.80;3.70;;;;;;;;;;5051735;28;20048;-82
2022/02/22 02:47:51;;;;;;;16.52;4.47;;;;;;;;;;5051744;28;20041;-80
2022/02/22 02:50:55;;;;;;;25.48;5.13;;;;;;;;;;5051281;28;20053;-82
2022/02/22 02:54:00;;;;;;;12.23;3.78;;;;;;;;;;5051602;28;20036;-80
2022/02/22 02:57:04;;;;;;;16.50;4.90;;;;;;;;;;5051367;28;20043;-82
2022/02/22 03:00:10;;;;;;;20.27;5.00;;;;;;;;;;5051172;28;20123;-82
2022/02/22 03:03:15;;;;;;;14.07;4.15;;;;;;;;;;5050842;28;20388;-82
2022/02/22 03:06:19;;;;;;;15.85;4.10;;;;;;;;;;5051517;28;20037;-82
2022/02/22 03:09:23;;;;;;;15.27;4.05;;;;;;;;;;5050334;28;20048;-82
2022/02/22 03:12:28;;;;;;;19.08;5.00;;;;;;;;;;5050635;28;20048;-82
2022/02/22 03:15:32;;;;;;;15.25;4.38;;;;;;;;;;5051387;28;20036;-82
2022/02/22 03:18:37;;;;;;;24.73;4.80;;;;;;;;;;5051102;28;20029;-82
2022/02/22 03:21:41;;;;;;;17.48;4.95;;;;;;;;;;5051303;28;20045;-82
2022/02/22 03:24:45;;;;;;;12.57;4.72;;;;;;;;;;5039077;28;20043;-82
2022/02/22 03:27:49;;;;;;;20.75;5.00;;;;;;;;;;5050177;28;20381;-82
2022/02/22 03:30:54;;;;;;;17.30;5.32;;;;;;;;;;5051005;28;20049;-82
2022/02/22 03:33:59;;;;;;;16.38;4.72;;;;;;;;;;5051016;28;20029;-82
2022/02/22 03:37:03;;;;;;;15.90;4.75;;;;;;;;;;5051086;28;20040;-82
2022/02/22 03:40:08;;;;;;;21.63;5.70;;;;;;;;;;5050967;28;20040;-82
2022/02/22 03:43:12;;;;;;;15.52;5.22;;;;;;;;;;5050934;28;20107;-82
2022/02/22 03:46:16;;;;;;;12.68;4.22;;;;;;;;;;5050670;28;20362;-82
2022/02/22 03:49:20;;;;;;;13.88;4.70;;;;;;;;;;5050322;28;20053;-81
2022/02/22 03:52:26;;;;;;;13.18;5.05;;;;;;;;;;5049737;28;20405;-82
2022/02/22 03:55:31;;;;;;;17.70;3.95;;;;;;;;;;5051154;28;20136;-82
2022/02/22 03:58:36;;;;;;;15.60;4.82;;;;;;;;;;5026653;28;20048;-82
2022/02/22 04:01:40;;;;;;;14.98;4.50;;;;;;;;;;5050654;28;20044;-82
2022/02/22 04:04:45;;;;;;;12.15;4.53;;;;;;;;;;5050614;28;20040;-82
2022/02/22 04:07:50;;;;;;;13.10;4.93;;;;;;;;;;5049709;28;20041;-82
2022/02/22 04:10:54;;;;;;;12.50;4.22;;;;;;;;;;5049713;28;20394;-82
2022/02/22 04:13:58;;;;;;;11.98;5.50;;;;;;;;;;5049530;28;20033;-82
2022/02/22 04:17:03;;;;;;;15.00;4.20;;;;;;;;;;5050287;28;20108;-82
2022/02/22 04:20:08;;;;;;;12.55;4.95;;;;;;;;;;5050406;28;20397;-82
2022/02/22 04:23:12;;;;;;;10.57;4.63;;;;;;;;;;5050407;28;20397;-82
2022/02/22 04:26:17;;;;;;;17.75;5.13;;;;;;;;;;5050425;28;20041;-82
2022/02/22 04:29:21;;;;;;;13.02;5.75;;;;;;;;;;5049909;28;20052;-82
2022/02/22 04:32:26;;;;;;;12.07;4.55;;;;;;;;;;5054103;28;20033;-82
2022/02/22 04:35:32;;;;;;;15.40;5.20;;;;;;;;;;5053807;28;20066;-82
2022/02/22 04:38:37;;;;;;;16.70;5.07;;;;;;;;;;5052744;28;20148;-82
2022/02/22 04:41:41;;;;;;;14.05;5.53;;;;;;;;;;5052927;28;20372;-82
2022/02/22 04:44:46;;;;;;;13.60;5.30;;;;;;;;;;5053925;28;20200;-81
2022/02/22 04:47:51;;;;;;;15.95;5.90;;;;;;;;;;5053668;28;20028;-82
2022/02/22 04:50:55;;;;;;;20.23;6.00;;;;;;;;;;5053492;28;20402;-82
2022/02/22 04:53:59;;;;;;;16.48;5.80;;;;;;;;;;5052965;28;20461;-82
2022/02/22 04:57:04;;;;;;;18.25;6.45;;;;;;;;;;5052546;28;20033;-82
2022/02/22 05:00:10;;;;;;;17.95;6.47;;;;;;;;;;5052706;28;20033;-81
2022/02/22 05:03:15;;;;;;;24.05;6.72;;;;;;;;;;5053535;28;20041;-82
2022/02/22 05:06:19;;;;;;;27.33;6.85;;;;;;;;;;5053351;28;20481;-81
2022/02/22 05:09:23;;;;;;;23.05;6.65;;;;;;;;;;5052188;28;20052;-82
2022/02/22 05:12:28;;;;;;;18.75;6.43;;;;;;;;;;5052342;28;20041;-82
2022/02/22 05:15:33;;;;;;;16.17;6.18;;;;;;;;;;5052544;28;20053;-82
2022/02/22 05:18:37;;;;;;;17.23;6.15;;;;;;;;;;5053246;28;20029;-82
2022/02/22 05:21:43;;;;;;;18.25;6.28;;;;;;;;;;5053215;28;20048;-82
2022/02/22 05:24:47;;;;;;;18.42;6.28;;;;;;;;;;5053103;28;20044;-82
2022/02/22 05:27:52;;;;;;;16.25;7.30;;;;;;;;;;5052267;28;20055;-82
2022/02/22 05:30:56;;;;;;;14.73;6.07;;;;;;;;;;5053012;28;20049;-81
2022/02/22 05:34:00;;;;;;;16.83;6.18;;;;;;;;;;5053126;28;20032;-82
2022/02/22 05:37:05;;;;;;;14.45;6.82;;;;;;;;;;5052962;28;20045;-82
2022/02/22 05:40:09;;;;;;;23.20;7.80;;;;;;;;;;5052703;28;20401;-82
2022/02/22 05:43:14;;;;;;;26.75;11.52;;;;;;;;;;5050375;28;20051;-82
2022/02/22 05:46:19;;;;;;;17.00;7.22;;;;;;;;;;5051998;28;20040;-82
2022/02/22 05:49:25;;;;;;;16.30;7.07;;;;;;;;;;5052287;28;20049;-81
2022/02/22 05:52:29;;;;;;;19.02;7.25;;;;;;;;;;5052750;28;20045;-82
2022/02/22 05:55:33;;;;;;;20.58;7.78;;;;;;;;;;5051778;28;20036;-82
2022/02/22 05:58:38;;;;;;;23.65;7.63;;;;;;;;;;5051629;28;20052;-82
2022/02/22 06:01:43;;;;;;;19.73;7.63;;;;;;;;;;5051445;28;20048;-82
2022/02/22 06:04:47;;;;;;;20.42;9.07;;;;;;;;;;5051641;28;20042;-82
2022/02/22 06:07:51;;;;;;;21.77;9.73;;;;;;;;;;5052036;28;20041;-82
2022/02/22 06:10:56;;;;;;;14.20;8.93;;;;;;;;;;5052450;28;20037;-79
2022/02/22 06:14:00;;;;;;;22.80;10.25;;;;;;;;;;5052813;28;20044;-80
2022/02/22 06:17:05;;;;;;;20.92;10.63;;;;;;;;;;5052195;28;20040;-80
2022/02/22 06:20:10;;;;;;;19.98;9.60;;;;;;;;;;5051909;28;20036;-80
2022/02/22 06:23:14;;;;;;;22.92;10.85;;;;;;;;;;5051854;28;20479;-80
2022/02/22 06:26:19;;;;;;;21.58;9.55;;;;;;;;;;5050942;28;20503;-79
2022/02/22 06:29:24;;;;;;;16.30;8.75;;;;;;;;;;5050820;28;20056;-77
2022/02/22 06:32:28;;;;;;;20.92;7.63;;;;;;;;;;5050871;28;20040;-75
2022/02/22 06:35:33;;;;;;;15.43;8.18;;;;;;;;;;5051355;28;20151;-74
2022/02/22 06:38:37;;;;;;;10.95;7.28;;;;;;;;;;5051472;28;20050;-72
2022/02/22 06:41:42;;;;;;;13.10;7.13;;;;;;;;;;5051579;28;20036;-74
2022/02/22 06:44:46;;;;;;;18.08;7.25;;;;;;;;;;5051317;28;20037;-73
2022/02/22 06:47:51;;;;;;;15.45;7.68;;;;;;;;;;5039205;28;20389;-73
2022/02/22 06:50:55;;;;;;;15.93;8.02;;;;;;;;;;5050921;28;20056;-73
2022/02/22 06:53:59;;;;;;;13.20;7.60;;;;;;;;;;5050923;28;20048;-74
2022/02/22 06:57:04;;;;;;;17.15;7.72;;;;;;;;;;5050349;28;20037;-74
2022/02/22 07:00:10;;;;;;;15.25;7.95;;;;;;;;;;5050227;28;20037;-72
2022/02/22 07:03:15;;;;;;;17.23;8.82;;;;;;;;;;5050171;28;20044;-74
2022/02/22 07:06:20;;;;;;;18.23;7.03;;;;;;;;;;5051067;28;20531;-75
2022/02/22 07:09:24;;;;;;;15.48;6.78;;;;;;;;;;5050723;28;20063;-72
2022/02/22 07:12:29;;;;;;;12.80;6.07;;;;;;;;;;5050677;28;20295;-73
2022/02/22 07:15:33;;;;;;;13.55;6.45;;;;;;;;;;5049808;28;20041;-73
2022/02/22 07:18:38;;;;;;;16.70;6.47;;;;;;;;;;5050692;28;20505;-75
2022/02/22 07:21:43;;;;;;;12.75;6.15;;;;;;;;;;5049756;28;20072;-73
2022/02/22 07:24:47;;;;;;;10.00;6.30;;;;;;;;;;5051027;28;20044;-76
2022/02/22 07:27:51;;;;;;;18.27;6.18;;;;;;;;;;5050570;28;20437;-71
2022/02/22 07:30:56;;;;;;;14.73;5.55;;;;;;;;;;5050752;28;20041;-73
2022/02/22 07:34:00;;;;;;;14.60;5.47;;;;;;;;;;5051020;28;20045;-73
2022/02/22 07:37:05;;;;;;;16.33;7.00;;;;;;;;;;5050847;28;20037;-74
2022/02/22 07:40:10;;;;;;;11.88;5.45;;;;;;;;;;5050641;28;20063;-74
2022/02/22 07:43:15;;;;;;;14.98;5.93;;;;;;;;;;5050370;28;20049;-76
2022/02/22 07:46:19;;;;;;;12.82;4.57;;;;;;;;;;5050706;28;20041;-76
2022/02/22 07:49:23;;;;;;;9.82;4.18;;;;;;;;;;5050125;28;20049;-75
2022/02/22 07:52:29;;;;;;;10.48;4.45;;;;;;;;;;5049712;28;20045;-75
2022/02/22 07:55:33;;;;;;;11.15;4.13;;;;;;;;;;5050394;28;20040;-75
2022/02/22 07:58:38;;;;;;;10.10;4.32;;;;;;;;;;5049571;28;20029;-72
2022/02/22 08:01:42;;;;;;;8.05;4.32;;;;;;;;;;5050479;28;20046;-72
2022/02/22 08:04:46;;;;;;;10.60;4.47;;;;;;;;;;5050285;28;20041;-70
2022/02/22 08:07:51;;;;;;;14.15;5.10;;;;;;;;;;5052776;28;20037;-70
2022/02/22 08:10:55;;;;;;;10.27;4.70;;;;;;;;;;5053853;28;20267;-70
2022/02/22 08:14:00;;;;;;;15.05;5.20;;;;;;;;;;5041494;28;20040;-70
2022/02/22 08:17:04;;;;;;;8.65;4.55;;;;;;;;;;5053983;28;20033;-70
2022/02/22 08:20:09;;;;;;;11.25;3.83;;;;;;;;;;5054008;28;20045;-70
2022/02/22 08:23:13;;;;;;;10.95;3.80;;;;;;;;;;5054536;28;20036;-70
2022/02/22 08:26:18;;;;;;;11.40;4.57;;;;;;;;;;5054286;28;20048;-70
2022/02/22 08:29:23;;;;;;;9.10;3.47;;;;;;;;;;5053859;28;20048;-70
2022/02/22 08:32:27;;;;;;;10.82;3.65;;;;;;;;;;5053678;28;20029;-70
2022/02/22 08:35:31;;;;;;;8.35;3.28;;;;;;;;;;5053054;28;20523;-70
2022/02/22 08:38:36;;;;;;;15.10;5.60;;;;;;;;;;5053809;28;20029;-70
2022/02/22 08:41:40;;;;;;;9.25;2.28;;;;;;;;;;5053897;28;20037;-70
2022/02/22 08:44:45;;;;;;;7.82;2.30;;;;;;;;;;5052854;28;20041;-70
2022/02/22 08:47:50;;;;;;;5.38;2.20;;;;;;;;;;5053719;28;20496;-70
2022/02/22 08:50:55;;;;;;;4.80;1.80;;;;;;;;;;5053626;28;20045;-70
2022/02/22 08:53:59;;;;;;;14.63;1.55;;;;;;;;;;5053436;28;20037;-70
2022/02/22 08:57:03;;;;;;;2.45;1.00;;;;;;;;;;5053539;28;20378;-70
2022/02/22 09:00:10;;;;;;;5.15;1.27;;;;;;;;;;5053453;28;20041;-70
2022/02/22 09:03:14;;;;;;;6.13;0.90;;;;;;;;;;5052664;28;20045;-70
2022/02/22 09:06:18;;;;;;;2.13;0.75;;;;;;;;;;5052660;28;20033;-70
2022/02/22 09:09:22;;;;;;;3.80;0.68;;;;;;;;;;5053139;28;20385;-70
2022/02/22 09:12:27;;;;;;;1.90;0.60;;;;;;;;;;5053372;28;20040;-70
2022/02/22 09:15:31;;;;;;;2.28;0.90;;;;;;;;;;5053087;28;20485;-70
2022/02/22 09:18:35;;;;;;;5.85;0.80;;;;;;;;;;5053070;28;20401;-70
2022/02/22 09:21:40;;;;;;;4.95;1.02;;;;;;;;;;5053123;28;20492;-70
2022/02/22 09:24:44;;;;;;;1.20;0.60;;;;;;;;;;5052846;28;20040;-70
2022/02/22 09:27:48;;;;;;;3.95;1.10;;;;;;;;;;5052789;28;20469;-70
2022/02/22 09:30:53;;;;;;;2.30;0.80;;;;;;;;;;5052866;28;20049;-70
2022/02/22 09:33:57;;;;;;;4.38;1.30;;;;;;;;;;5052922;28;20040;-70
2022/02/22 09:37:03;;;;;;;1.90;0.63;;;;;;;;;;5052912;28;20045;-70
2022/02/22 09:40:08;;;;;;;2.63;0.70;;;;;;;;;;5051885;28;20101;-70
2022/02/22 09:43:13;;;;;;;2.72;0.50;;;;;;;;;;5052527;28;20044;-70
2022/02/22 09:46:18;;;;;;;7.88;0.80;;;;;;;;;;5052643;28;20041;-70
2022/02/22 09:49:22;;;;;;;3.88;1.05;;;;;;;;;;5039778;28;20485;-70
2022/02/22 09:52:27;;;;;;;2.55;0.90;;;;;;;;;;5051442;28;20041;-69
2022/02/22 09:55:31;;;;;;;1.83;0.50;;;;;;;;;;5052450;28;20040;-70
2022/02/22 09:58:35;;;;;;;2.88;0.70;;;;;;;;;;5052329;28;20041;-70
2022/02/22 10:01:43;;;;;;;2.78;0.60;;;;;;;;;;5052073;28;20033;-70
2022/02/22 10:04:49;;;;;;;4.60;0.85;;;;;;;;;;5052360;28;20040;-70
2022/02/22 10:08:03;;;;;;;2.83;0.60;;;;;;;;;;5051920;28;20041;-70
2022/02/22 10:11:08;;;;;;;7.88;0.93;;;;;;;;;;5052238;28;20037;-70
2022/02/22 10:14:20;;;;;;;1.85;0.80;;;;;;;;;;5052049;28;20045;-70
2022/02/22 10:17:24;;;;;;;5.50;0.50;;;;;;;;;;5051753;28;20036;-70
2022/02/22 10:20:28;;;;;;;7.97;0.65;;;;;;;;;;5051897;28;20041;-70
2022/02/22 10:23:33;;;;;;;3.15;0.60;;;;;;;;;;5050933;28;20040;-70
2022/02/22 10:26:37;;;;;;;4.10;0.77;;;;;;;;;;5051847;28;20041;-70
2022/02/22 10:29:41;;;;;;;10.45;0.75;;;;;;;;;;5050860;28;20041;-71
2022/02/22 10:32:45;;;;;;;5.13;0.82;;;;;;;;;;5051739;28;20044;-70
2022/02/22 10:35:51;;;;;;;7.10;0.80;;;;;;;;;;5039441;28;20041;-70
2022/02/22 10:39:02;;;;;;;2.00;0.50;;;;;;;;;;5051404;28;20041;-71
2022/02/22 10:42:06;;;;;;;1.05;0.50;;;;;;;;;;5050666;28;20045;-71
2022/02/22 10:45:11;;;;;;;3.13;0.55;;;;;;;;;;5051086;28;20037;-72
2022/02/22 10:48:24;;;;;;;3.45;0.60;;;;;;;;;;5051510;28;20029;-75
2022/02/22 10:51:49;;;;;;;2.30;0.90;;;;;;;;;;5050909;28;20057;-73
2022/02/22 10:54:57;;;;;;;9.52;0.80;;;;;;;;;;5037619;28;20037;-80
2022/02/22 10:58:02;;;;;;;1.42;0.57;;;;;;;;;;5049367;28;20044;-73
2022/02/22 11:01:10;;;;;;;1.17;0.60;;;;;;;;;;5048891;28;20045;-74
2022/02/22 11:04:14;;;;;;;1.88;0.80;;;;;;;;;;5049433;28;20044;-73
2022/02/22 11:07:22;;;;;;;1.38;0.52;;;;;;;;;;5049287;28;20028;-74
2022/02/22 11:10:28;;;;;;;2.63;0.60;;;;;;;;;;5050488;28;20052;-69
2022/02/22 11:13:33;;;;;;;6.25;0.70;;;;;;;;;;5050551;28;20029;-76
2022/02/22 11:16:40;;;;;;;1.38;0.63;;;;;;;;;;5038347;28;20032;-73
2022/02/22 11:19:48;;;;;;;6.43;0.68;;;;;;;;;;5050852;28;20143;-75
2022/02/22 11:22:57;;;;;;;3.83;1.45;;;;;;;;;;5050675;28;20028;-73
2022/02/22 11:26:06;;;;;;;4.97;1.08;;;;;;;;;;5050236;28;20045;-76
2022/02/22 11:29:11;;;;;;;4.43;0.93;;;;;;;;;;5050566;28;20041;-76
2022/02/22 11:32:16;;;;;;;2.92;0.65;;;;;;;;;;5050595;28;20032;-76
2022/02/22 11:35:21;;;;;;;6.25;1.10;;;;;;;;;;5050813;28;20044;-79
2022/02/22 11:38:27;;;;;;;3.80;0.93;;;;;;;;;;5050466;28;20354;-76
2022/02/22 11:41:50;;;;;;;3.70;0.80;;;;;;;;;;5050339;28;20037;-78
2022/02/22 11:44:59;;;;;;;2.42;0.77;;;;;;;;;;5050642;28;20056;-78
2022/02/22 11:48:23;;;;;;;4.18;0.70;;;;;;;;;;5051129;28;20040;-78
2022/02/22 11:51:27;;;;;;;3.60;1.00;;;;;;;;;;5049329;28;20126;-77
2022/02/22 11:54:32;;;;;;;2.90;0.80;;;;;;;;;;5050338;28;20213;-77
2022/02/22 11:57:46;;;;;;;3.17;0.80;;;;;;;;;;5050325;28;20044;-77
2022/02/22 12:00:54;;;;;;;3.20;0.95;;;;;;;;;;5049578;28;20037;-73
2022/02/22 12:03:59;;;;;;;7.05;1.60;;;;;;;;;;5050220;28;20248;-72
2022/02/22 12:07:03;;;;;;;12.95;1.13;;;;;;;;;;5050409;28;20058;-72
2022/02/22 12:10:08;;;;;;;5.18;1.30;;;;;;;;;;5050245;28;20060;-72
2022/02/22 12:13:13;;;;;;;4.75;1.00;;;;;;;;;;5050364;28;20473;-72
2022/02/22 12:16:18;;;;;;;5.78;2.03;;;;;;;;;;5050169;28;20374;-71
2022/02/22 12:19:22;;;;;;;1.55;0.50;;;;;;;;;;5050273;28;20053;-72
2022/02/22 12:22:27;;;;;;;3.33;0.90;;;;;;;;;;5049482;28;20037;-72
2022/02/22 12:25:33;;;;;;;7.82;1.85;;;;;;;;;;5049893;28;20048;-72
2022/02/22 12:28:47;;;;;;;3.33;1.15;;;;;;;;;;5050150;28;20040;-73
2022/02/22 12:31:54;;;;;;;3.88;0.98;;;;;;;;;;5050063;28;20497;-72
2022/02/22 12:35:01;;;;;;;4.28;0.90;;;;;;;;;;5050311;28;20480;-72
2022/02/22 12:38:18;;;;;;;1.63;0.73;;;;;;;;;;5049926;28;20041;-72
2022/02/22 12:41:22;;;;;;;6.25;0.90;;;;;;;;;;5050061;28;20041;-72
2022/02/22 12:44:27;;;;;;;7.30;1.08;;;;;;;;;;5050215;28;20067;-72
2022/02/22 12:47:32;;;;;;;2.70;0.90;;;;;;;;;;5050245;28;20040;-72
2022/02/22 12:50:37;;;;;;;5.72;1.40;;;;;;;;;;5049554;28;20390;-71
2022/02/22 12:53:41;;;;;;;9.40;1.30;;;;;;;;;;5052786;28;20041;-77
2022/02/22 12:56:49;;;;;;;4.28;2.20;;;;;;;;;;5053475;28;20041;-78
2022/02/22 13:00:00;;;;;;;5.07;0.80;;;;;;;;;;5052827;28;20044;-73
2022/02/22 13:03:10;;;;;;;3.33;1.33;;;;;;;;;;5053638;28;20045;-75
2022/02/22 13:06:15;;;;;;;4.22;1.58;;;;;;;;;;5053385;28;20557;-77
2022/02/22 13:09:19;;;;;;;8.80;2.75;;;;;;;;;;5053282;28;20041;-72
2022/02/22 13:12:28;;;;;;;2.83;0.98;;;;;;;;;;5053590;28;20048;-77
2022/02/22 13:15:32;;;;;;;4.63;0.88;;;;;;;;;;5053433;28;20041;-70
2022/02/22 13:18:36;;;;;;;4.35;1.13;;;;;;;;;;5052931;28;20358;-69
2022/02/22 13:21:41;;;;;;;4.43;0.85;;;;;;;;;;5053023;28;20037;-71
2022/02/22 13:24:54;;;;;;;4.78;0.80;;;;;;;;;;5053166;28;20033;-72
2022/02/22 13:27:58;;;;;;;2.53;1.00;;;;;;;;;;5052257;28;20045;-72
2022/02/22 13:31:16;;;;;;;11.38;5.28;;;;;;;;;;5051782;28;20049;-72
2022/02/22 13:34:23;;;;;;;15.63;8.93;;;;;;;;;;5053081;28;20037;-72
2022/02/22 13:37:31;;;;;;;11.05;4.25;;;;;;;;;;5052727;28;20045;-72
2022/02/22 13:40:35;;;;;;;6.35;2.85;;;;;;;;;;5052782;28;20045;-73
2022/02/22 13:43:40;;;;;;;7.85;3.13;;;;;;;;;;5052625;28;20040;-72
2022/02/22 13:46:52;;;;;;;1.77;1.30;;;;;;;;;;5052839;28;20055;-72
2022/02/22 13:49:57;;;;;;;6.68;1.00;;;;;;;;;;5052394;28;20188;-72
2022/02/22 13:53:03;;;;;;;3.08;1.10;;;;;;;;;;5052599;28;20033;-73
2022/02/22 13:56:09;;;;;;;3.45;1.42;;;;;;;;;;5051794;28;20037;-72
2022/02/22 13:59:13;;;;;;;6.05;1.48;;;;;;;;;;5052436;28;20045;-73
2022/02/22 14:02:24;;;;;;;3.55;1.00;;;;;;;;;;5052277;28;20037;-73
2022/02/22 14:05:28;;;;;;;4.30;1.45;;;;;;;;;;5052296;28;20033;-72
2022/02/22 14:08:33;;;;;;;2.20;1.38;;;;;;;;;;5052065;28;20041;-72
2022/02/22 14:11:41;;;;;;;2.72;1.08;;;;;;;;;;5052212;28;20078;-73
2022/02/22 14:14:45;;;;;;;4.35;1.08;;;;;;;;;;5051297;28;20037;-72
2022/02/22 14:17:50;;;;;;;2.50;1.10;;;;;;;;;;5051961;28;20517;-72
2022/02/22 14:20:54;;;;;;;8.82;1.20;;;;;;;;;;5051025;28;20382;-72
2022/02/22 14:23:59;;;;;;;2.72;0.95;;;;;;;;;;5051789;28;20041;-72
2022/02/22 14:27:03;;;;;;;5.07;0.88;;;;;;;;;;5051047;28;20037;-72
2022/02/22 14:30:07;;;;;;;4.72;1.15;;;;;;;;;;5051433;28;20048;-72
2022/02/22 14:33:12;;;;;;;3.67;1.30;;;;;;;;;;5052025;28;20374;-72
2022/02/22 14:36:17;;;;;;;2.33;1.15;;;;;;;;;;5051846;28;20045;-73
2022/02/22 14:39:21;;;;;;;4.07;2.10;;;;;;;;;;5051807;28;20045;-72
2022/02/22 14:42:25;;;;;;;3.72;1.40;;;;;;;;;;5051287;28;20037;-72
2022/02/22 14:45:30;;;;;;;5.38;1.90;;;;;;;;;;5051594;28;20040;-72
2022/02/22 14:48:34;;;;;;;5.90;1.20;;;;;;;;;;5050491;28;20037;-72
2022/02/22 14:51:38;;;;;;;1.95;0.85;;;;;;;;;;5051113;28;20093;-72
2022/02/22 14:54:43;;;;;;;4.90;1.30;;;;;;;;;;5051304;28;20037;-72
2022/02/22 14:57:47;;;;;;;5.50;1.55;;;;;;;;;;5050358;28;20374;-72
2022/02/22 15:00:52;;;;;;;3.05;1.60;;;;;;;;;;5051324;28;20037;-73
2022/02/22 15:03:56;;;;;;;2.85;1.27;;;;;;;;;;5050493;28;20041;-72
2022/02/22 15:07:00;;;;;;;8.95;1.00;;;;;;;;;;5050846;28;20509;-71
2022/02/22 15:10:06;;;;;;;4.28;1.38;;;;;;;;;;5050903;28;20586;-71
2022/02/22 15:13:10;;;;;;;6.20;1.25;;;;;;;;;;5050830;28;20040;-75
2022/02/22 15:16:15;;;;;;;2.53;1.27;;;;;;;;;;5050482;28;20036;-75
2022/02/22 15:19:19;;;;;;;1.77;0.80;;;;;;;;;;5050737;28;20033;-71
2022/02/22 15:22:24;;;;;;;8.15;3.00;;;;;;;;;;5050864;28;20040;-77
2022/02/22 15:25:28;;;;;;;2.80;0.90;;;;;;;;;;5051008;28;20036;-73
2022/02/22 15:28:33;;;;;;;3.45;1.13;;;;;;;;;;5049806;28;20390;-73
2022/02/22 15:31:39;;;;;;;4.95;1.95;;;;;;;;;;5050924;28;20056;-78
2022/02/22 15:34:43;;;;;;;4.13;1.33;;;;;;;;;;5049966;28;20339;-78
2022/02/22 15:37:48;;;;;;;2.78;1.35;;;;;;;;;;5050314;28;20037;-78
2022/02/22 15:40:52;;;;;;;3.40;1.42;;;;;;;;;;5050107;28;20045;-77
2022/02/22 15:43:57;;;;;;;5.13;0.90;;;;;;;;;;5050262;28;20473;-73
2022/02/22 15:47:02;;;;;;;4.10;1.90;;;;;;;;;;5050069;28;20037;-75
2022/02/22 15:50:06;;;;;;;2.83;1.20;;;;;;;;;;5049762;28;20401;-75
2022/02/22 15:53:11;;;;;;;6.30;3.22;;;;;;;;;;5050405;28;20041;-77
2022/02/22 15:56:16;;;;;;;10.63;2.67;;;;;;;;;;5038155;28;20029;-77
2022/02/22 15:59:20;;;;;;;8.18;3.15;;;;;;;;;;5049660;28;20059;-76
2022/02/22 16:02:24;;;;;;;7.28;1.30;;;;;;;;;;5050561;28;20037;-78
2022/02/22 16:05:29;;;;;;;5.68;1.75;;;;;;;;;;5050191;28;20374;-74
2022/02/22 16:08:35;;;;;;;4.60;3.17;;;;;;;;;;5050151;28;20045;-77
2022/02/22 16:11:39;;;;;;;5.70;2.42;;;;;;;;;;5050109;28;20382;-72
2022/02/22 16:14:44;;;;;;;8.85;1.60;;;;;;;;;;5037840;28;20037;-74
2022/02/22 16:17:49;;;;;;;3.08;1.23;;;;;;;;;;5037527;28;20041;-72
2022/02/22 16:20:56;;;;;;;6.53;1.77;;;;;;;;;;5050265;28;20041;-78
2022/02/22 16:24:00;;;;;;;3.97;1.33;;;;;;;;;;5050060;28;20045;-78
2022/02/22 16:27:04;;;;;;;7.22;2.95;;;;;;;;;;5051152;28;20045;-78
2022/02/22 16:30:09;;;;;;;5.70;2.75;;;;;;;;;;5053925;28;20052;-74
2022/02/22 16:33:13;;;;;;;8.13;3.10;;;;;;;;;;5053684;28;20370;-72
2022/02/22 16:36:18;;;;;;;6.82;1.80;;;;;;;;;;5041243;28;20045;-76
2022/02/22 16:39:25;;;;;;;5.53;1.80;;;;;;;;;;5053172;28;20032;-74
2022/02/22 16:42:29;;;;;;;4.85;1.95;;;;;;;;;;5041184;28;20045;-77
2022/02/22 16:45:34;;;;;;;5.93;1.92;;;;;;;;;;5052545;28;20037;-77
2022/02/22 16:48:39;;;;;;;12.57;2.40;;;;;;;;;;5053308;28;20040;-75
2022/02/22 16:51:47;;;;;;;8.82;2.08;;;;;;;;;;5052398;28;20044;-79
2022/02/22 16:54:51;;;;;;;8.70;1.95;;;;;;;;;;5052333;28;20029;-76
2022/02/22 16:57:56;;;;;;;6.90;2.45;;;;;;;;;;5053121;28;20041;-76
2022/02/22 17:01:01;;;;;;;4.88;1.90;;;;;;;;;;5052861;28;20041;-76
2022/02/22 17:04:05;;;;;;;6.82;1.98;;;;;;;;;;5053093;28;20033;-73
2022/02/22 17:07:09;;;;;;;11.07;5.68;;;;;;;;;;5052693;28;20033;-72
2022/02/22 17:10:14;;;;;;;11.90;6.47;;;;;;;;;;5052766;28;20037;-71
2022/02/22 17:13:19;;;;;;;6.47;2.83;;;;;;;;;;5053319;28;20048;-75
2022/02/22 17:16:23;;;;;;;11.27;4.63;;;;;;;;;;5053151;28;20041;-78
2022/02/22 17:19:28;;;;;;;8.55;5.03;;;;;;;;;;5052218;28;20054;-71
2022/02/22 17:22:32;;;;;;;8.07;3.40;;;;;;;;;;5052968;28;20041;-72
2022/02/22 17:25:37;;;;;;;7.78;3.33;;;;;;;;;;5052965;28;20386;-77
2022/02/22 17:28:41;;;;;;;9.73;3.70;;;;;;;;;;5051889;28;20379;-74
2022/02/22 17:31:45;;;;;;;7.00;3.22;;;;;;;;;;5051885;28;20405;-73
2022/02/22 17:34:49;;;;;;;6.07;3.60;;;;;;;;;;5052765;28;20033;-74
2022/02/22 17:37:54;;;;;;;10.77;4.03;;;;;;;;;;5051774;28;20040;-74
2022/02/22 17:41:00;;;;;;;7.18;4.30;;;;;;;;;;5052627;28;20048;-74
2022/02/22 17:44:04;;;;;;;7.82;3.10;;;;;;;;;;5052040;28;20040;-72
2022/02/22 17:47:08;;;;;;;5.18;2.17;;;;;;;;;;5052512;28;20041;-70
2022/02/22 17:50:13;;;;;;;6.45;3.08;;;;;;;;;;5052201;28;20488;-69
2022/02/22 17:53:17;;;;;;;4.03;2.00;;;;;;;;;;5052404;28;20041;-68
2022/02/22 17:56:21;;;;;;;4.68;2.03;;;;;;;;;;5051299;28;20045;-69
2022/02/22 17:59:26;;;;;;;7.72;2.55;;;;;;;;;;5052232;28;20512;-70
2022/02/22 18:02:30;;;;;;;4.55;2.20;;;;;;;;;;5051242;28;20041;-69
2022/02/22 18:05:35;;;;;;;6.03;1.98;;;;;;;;;;5051938;28;20062;-70
2022/02/22 18:08:39;;;;;;;4.30;1.90;;;;;;;;;;5051889;28;20045;-69
2022/02/22 18:11:44;;;;;;;5.70;1.77;;;;;;;;;;5051405;28;20049;-69
2022/02/22 18:14:49;;;;;;;8.70;2.17;;;;;;;;;;5050742;28;20033;-66
2022/02/22 18:17:53;;;;;;;6.18;2.67;;;;;;;;;;5051467;28;20040;-69
2022/02/22 18:20:58;;;;;;;3.25;1.75;;;;;;;;;;5050823;28;20041;-72